Wetterdaten für den Flughafen Lübeck Blankensee


ADDS - METARS form results Aviation Digital Data Service (ADDS) Output produced by METARs form (1428 UTC 24 October 2020)
found at http://www.aviationweather.gov/metar/data/
 
EDHL 241420Z 19007KT 9999 SCT024 BKN040 14/10 Q1010
TAF EDHL 241400Z 2415/2421 19008KT 9999 BKN035 TEMPO 2415/2418 BKN014 PROB30 TEMPO 2415/2418 4000 -DZRA BKN008

Nord: Hamburg, Lübeck
Ost: Schwerin, Rostock
Süd: Hannover
West: Bremen, Nordhloz

 

Copyright © 2016 Flugschule Hohensee